Time;durP1;ratioP1;P1;durP2;ratioP2;P2;SDS_P1;SDS_P2;PMS_P1;PMS_P2;Temp;Humidity;BMP_temperature;BMP_pressure;BME280_temperature;BME280_humidity;BME280_pressure;Samples;Min_cycle;Max_cycle;Signal;HPM_P1;HPM_P2
2021/09/15 00:00:08;;;;;;;6.37;5.73;;;21.60;99.90;;;;;;5027528;28;20293;-49
2021/09/15 00:02:34;;;;;;;6.70;6.10;;;21.50;99.90;;;;;;5037968;28;20210;-49
2021/09/15 00:05:00;;;;;;;6.17;5.60;;;21.50;99.90;;;;;;5042744;28;20228;-50
2021/09/15 00:07:26;;;;;;;5.73;5.27;;;21.40;99.90;;;;;;5035231;28;20590;-50
2021/09/15 00:09:51;;;;;;;7.00;6.30;;;21.30;99.90;;;;;;5029865;28;20193;-49
2021/09/15 00:12:17;;;;;;;5.63;5.23;;;21.30;99.90;;;;;;5028078;28;20667;-50
2021/09/15 00:14:43;;;;;;;5.80;5.40;;;21.20;99.90;;;;;;5039194;28;20269;-49
2021/09/15 00:17:08;;;;;;;5.20;4.80;;;21.20;99.90;;;;;;5035851;28;20573;-50
2021/09/15 00:19:34;;;;;;;5.80;5.30;;;21.30;99.90;;;;;;5032704;28;20182;-50
2021/09/15 00:22:00;;;;;;;5.43;4.93;;;21.40;99.90;;;;;;5028131;28;20250;-50
2021/09/15 00:24:25;;;;;;;6.07;5.47;;;21.40;99.90;;;;;;5019537;28;20237;-50
2021/09/15 00:26:51;;;;;;;5.73;5.27;;;21.50;99.90;;;;;;5034628;28;20190;-49
2021/09/15 00:29:17;;;;;;;6.37;5.80;;;21.40;99.90;;;;;;5029596;28;20228;-50
2021/09/15 00:31:42;;;;;;;7.03;6.37;;;21.40;99.90;;;;;;5033959;28;20570;-50
2021/09/15 00:34:08;;;;;;;5.70;5.30;;;21.40;99.90;;;;;;5034529;28;20212;-50
2021/09/15 00:36:34;;;;;;;6.50;6.00;;;21.40;99.90;;;;;;5033342;28;20186;-50
2021/09/15 00:39:00;;;;;;;5.50;5.00;;;21.50;99.90;;;;;;5034084;28;20190;-50
2021/09/15 00:41:25;;;;;;;5.77;5.27;;;21.50;99.90;;;;;;5031282;28;20663;-49
2021/09/15 00:44:08;;;;;;;6.40;5.80;;;21.50;99.90;;;;;;5023809;28;20186;-49
2021/09/15 00:46:36;;;;;;;6.07;5.57;;;21.60;99.90;;;;;;5024070;28;20201;-49
2021/09/15 00:49:02;;;;;;;6.63;5.65;;;21.60;99.90;;;;;;5029601;28;20186;-49
2021/09/15 00:51:31;;;;;;;6.30;5.38;;;21.50;99.90;;;;;;5034875;28;20286;-49
2021/09/15 00:53:56;;;;;;;6.43;5.82;;;21.50;99.90;;;;;;5029007;28;20312;-49
2021/09/15 00:56:23;;;;;;;5.67;5.17;;;21.50;99.90;;;;;;5037675;28;20213;-49
2021/09/15 00:58:49;;;;;;;6.45;5.43;;;21.50;99.90;;;;;;5026581;28;20220;-50
2021/09/15 01:01:14;;;;;;;5.40;5.00;;;21.50;99.90;;;;;;5030353;28;20206;-50
2021/09/15 01:03:40;;;;;;;6.10;5.60;;;21.40;99.90;;;;;;5031659;28;20184;-49
2021/09/15 01:06:06;;;;;;;5.93;5.33;;;21.50;99.90;;;;;;5033014;28;20209;-49
2021/09/15 01:08:32;;;;;;;6.38;5.88;;;21.50;99.90;;;;;;5036379;28;20202;-50
2021/09/15 01:10:59;;;;;;;6.95;6.25;;;21.50;99.90;;;;;;5031580;28;20233;-49
2021/09/15 01:13:27;;;;;;;6.53;5.82;;;21.40;99.90;;;;;;5025532;28;20189;-49
2021/09/15 01:15:52;;;;;;;6.47;5.78;;;21.40;99.90;;;;;;5030691;28;20188;-49
2021/09/15 01:18:19;;;;;;;6.80;6.20;;;21.40;99.90;;;;;;5029000;28;20212;-49
2021/09/15 01:20:46;;;;;;;6.03;5.53;;;21.40;99.90;;;;;;5034689;28;20202;-49
2021/09/15 01:23:12;;;;;;;7.15;6.45;;;21.40;99.90;;;;;;5026959;28;20182;-49
2021/09/15 01:25:38;;;;;;;6.20;5.70;;;21.40;99.90;;;;;;5031473;28;20186;-49
2021/09/15 01:28:04;;;;;;;6.40;6.00;;;21.40;99.90;;;;;;5029420;28;20553;-49
2021/09/15 01:30:30;;;;;;;7.25;6.50;;;21.30;99.90;;;;;;5034269;28;20491;-49
2021/09/15 01:32:56;;;;;;;6.70;6.10;;;21.40;99.90;;;;;;5031698;28;20531;-50
2021/09/15 01:35:22;;;;;;;6.63;6.03;;;21.40;99.90;;;;;;5031161;28;20460;-49
2021/09/15 01:37:48;;;;;;;7.20;6.50;;;21.40;99.90;;;;;;5023836;28;20312;-49
2021/09/15 01:40:14;;;;;;;6.57;6.03;;;21.40;99.90;;;;;;5027096;28;20332;-50
2021/09/15 01:42:40;;;;;;;6.57;5.97;;;21.40;99.90;;;;;;5029385;28;20270;-49
2021/09/15 01:45:08;;;;;;;7.88;6.15;;;21.40;99.90;;;;;;5030504;28;20663;-49
2021/09/15 01:47:34;;;;;;;7.45;6.85;;;21.40;99.90;;;;;;5035826;28;20911;-49
2021/09/15 01:50:00;;;;;;;6.80;6.20;;;21.40;99.90;;;;;;5028405;28;20404;-49
2021/09/15 01:52:25;;;;;;;9.50;6.57;;;21.40;99.90;;;;;;5031982;28;20822;-50
2021/09/15 01:54:51;;;;;;;6.60;6.00;;;21.30;99.90;;;;;;5041969;28;20201;-49
2021/09/15 01:57:17;;;;;;;6.37;5.87;;;21.30;99.90;;;;;;5031789;28;20595;-49
2021/09/15 01:59:43;;;;;;;6.70;6.00;;;21.30;99.90;;;;;;5023081;28;20468;-49
2021/09/15 02:02:11;;;;;;;6.60;5.97;;;21.30;99.90;;;;;;5034526;28;20651;-49
2021/09/15 02:04:41;;;;;;;7.82;6.50;;;21.30;99.90;;;;;;5038708;28;20201;-49
2021/09/15 02:07:07;;;;;;;6.25;5.80;;;21.20;99.90;;;;;;5034944;28;20577;-49
2021/09/15 02:09:34;;;;;;;7.30;6.60;;;21.20;99.90;;;;;;5038805;28;20186;-49
2021/09/15 02:12:00;;;;;;;7.05;6.35;;;21.20;99.90;;;;;;5028011;28;20210;-50
2021/09/15 02:14:26;;;;;;;7.20;6.43;;;21.20;99.90;;;;;;5028401;28;20434;-50
2021/09/15 02:16:52;;;;;;;7.57;6.50;;;21.20;99.90;;;;;;5028792;28;21044;-49
2021/09/15 02:19:18;;;;;;;7.03;6.43;;;21.20;99.90;;;;;;5033759;28;20194;-49
2021/09/15 02:21:44;;;;;;;8.40;7.10;;;21.20;99.90;;;;;;5028695;28;20517;-49
2021/09/15 02:24:10;;;;;;;7.60;6.90;;;21.20;99.90;;;;;;5030341;28;20214;-49
2021/09/15 02:26:36;;;;;;;7.30;6.70;;;21.20;99.90;;;;;;5030425;28;20244;-49
2021/09/15 02:29:03;;;;;;;6.80;6.20;;;21.30;99.90;;;;;;5037102;28;20190;-49
2021/09/15 02:31:29;;;;;;;6.70;6.10;;;21.30;99.90;;;;;;5027861;28;20253;-49
2021/09/15 02:33:55;;;;;;;7.07;6.47;;;21.30;99.90;;;;;;5034081;28;20190;-49
2021/09/15 02:36:22;;;;;;;6.63;6.00;;;21.30;99.90;;;;;;5029588;28;20184;-49
2021/09/15 02:38:48;;;;;;;7.40;6.70;;;21.10;99.90;;;;;;5029817;28;20202;-49
2021/09/15 02:41:14;;;;;;;8.40;6.87;;;21.10;99.90;;;;;;5027140;28;20581;-50
2021/09/15 02:43:39;;;;;;;7.50;6.07;;;21.10;99.90;;;;;;5025219;28;20470;-50
2021/09/15 02:46:05;;;;;;;7.60;7.00;;;21.10;99.90;;;;;;5026971;28;20261;-49
2021/09/15 02:48:31;;;;;;;6.30;5.70;;;21.20;99.90;;;;;;5022602;28;20222;-49
2021/09/15 02:50:56;;;;;;;6.77;6.27;;;21.20;99.90;;;;;;5018304;28;20190;-49
2021/09/15 02:53:23;;;;;;;6.83;6.13;;;21.20;99.90;;;;;;5030283;28;20194;-49
2021/09/15 02:55:49;;;;;;;7.00;6.45;;;21.20;99.90;;;;;;5029623;28;20675;-50
2021/09/15 02:58:14;;;;;;;6.43;5.83;;;21.20;99.90;;;;;;5020431;28;20241;-49
2021/09/15 03:00:40;;;;;;;7.73;7.03;;;21.20;99.90;;;;;;5030700;28;20680;-49
2021/09/15 03:03:06;;;;;;;7.30;6.60;;;21.10;99.90;;;;;;5034459;28;20190;-49
2021/09/15 03:05:32;;;;;;;6.50;5.93;;;21.20;99.90;;;;;;5028657;28;21021;-49
2021/09/15 03:07:59;;;;;;;6.80;6.20;;;21.20;99.90;;;;;;5029874;28;20560;-49
2021/09/15 03:10:25;;;;;;;6.40;5.82;;;21.20;99.90;;;;;;5023676;28;20446;-49
2021/09/15 03:12:51;;;;;;;6.47;5.97;;;21.20;99.90;;;;;;5019831;28;20633;-49
2021/09/15 03:15:17;;;;;;;7.43;6.30;;;21.30;99.90;;;;;;5025937;28;20186;-49
2021/09/15 03:17:43;;;;;;;7.30;6.70;;;21.30;99.90;;;;;;5028710;28;20194;-49
2021/09/15 03:20:09;;;;;;;7.80;7.10;;;21.30;99.90;;;;;;5029417;28;20443;-49
2021/09/15 03:22:35;;;;;;;6.50;5.97;;;21.30;99.90;;;;;;5027999;28;20634;-48
2021/09/15 03:25:00;;;;;;;7.03;6.43;;;21.30;99.90;;;;;;5030768;28;20257;-49
2021/09/15 03:27:26;;;;;;;7.30;6.60;;;21.30;99.90;;;;;;5030815;28;20216;-49
2021/09/15 03:29:52;;;;;;;7.40;6.70;;;21.30;99.90;;;;;;5029740;28;20957;-49
2021/09/15 03:32:18;;;;;;;7.37;6.77;;;21.20;99.90;;;;;;5042857;28;20443;-49
2021/09/15 03:34:44;;;;;;;7.33;6.70;;;21.20;99.90;;;;;;5037226;28;20283;-49
2021/09/15 03:37:10;;;;;;;6.93;6.33;;;21.30;99.90;;;;;;5034075;28;20206;-49
2021/09/15 03:39:36;;;;;;;7.38;6.78;;;21.20;99.90;;;;;;5023789;28;20473;-49
2021/09/15 03:42:03;;;;;;;6.78;6.07;;;21.20;99.90;;;;;;5020036;28;20220;-48
2021/09/15 03:44:28;;;;;;;8.07;6.65;;;21.20;99.90;;;;;;5027684;28;20190;-49
2021/09/15 03:46:54;;;;;;;7.00;6.50;;;21.20;99.90;;;;;;5041280;28;20209;-48
2021/09/15 03:49:21;;;;;;;7.23;6.53;;;21.20;99.90;;;;;;5034674;28;20664;-49
2021/09/15 03:51:48;;;;;;;8.20;7.50;;;21.20;99.90;;;;;;5034144;28;20182;-49
2021/09/15 03:54:15;;;;;;;8.45;7.45;;;21.20;99.90;;;;;;5030625;28;20701;-49
2021/09/15 03:56:40;;;;;;;8.20;7.10;;;21.20;99.90;;;;;;5030782;28;20551;-48
2021/09/15 03:59:07;;;;;;;7.57;6.93;;;21.20;99.90;;;;;;5027589;28;20186;-48
2021/09/15 04:01:32;;;;;;;8.13;7.40;;;21.10;99.90;;;;;;5030748;28;20244;-49
2021/09/15 04:03:58;;;;;;;7.90;7.20;;;21.20;99.90;;;;;;5038070;28;20625;-49
2021/09/15 04:06:24;;;;;;;7.50;6.90;;;21.10;99.90;;;;;;5033199;28;20178;-49
2021/09/15 04:08:50;;;;;;;7.63;7.03;;;21.10;99.90;;;;;;5025995;28;20206;-49
2021/09/15 04:11:15;;;;;;;8.00;7.20;;;21.10;99.90;;;;;;5033200;28;20284;-49
2021/09/15 04:13:41;;;;;;;8.17;7.33;;;21.10;99.90;;;;;;5028595;28;20197;-49
2021/09/15 04:16:07;;;;;;;7.63;7.03;;;21.10;99.90;;;;;;5031600;28;20186;-49
2021/09/15 04:18:32;;;;;;;8.17;7.37;;;21.20;99.90;;;;;;5030776;28;20213;-51
2021/09/15 04:20:58;;;;;;;8.10;7.40;;;21.20;99.90;;;;;;5030256;28;20205;-49
2021/09/15 04:23:36;;;;;;;7.50;6.90;;;21.20;99.90;;;;;;5030333;28;20813;-49
2021/09/15 04:31:32;;;;;;;7.40;6.80;;;21.00;99.90;;;;;;5036264;28;20212;-49
2021/09/15 04:34:01;;;;;;;7.47;6.88;;;21.00;99.90;;;;;;5031775;28;20190;-49
2021/09/15 04:36:27;;;;;;;8.05;7.28;;;21.00;99.90;;;;;;5037946;28;20686;-49
2021/09/15 04:38:53;;;;;;;7.78;7.07;;;21.00;99.90;;;;;;5037016;28;20642;-50
2021/09/15 04:41:19;;;;;;;9.30;8.50;;;21.00;99.90;;;;;;5035834;28;20205;-50
2021/09/15 04:43:45;;;;;;;8.13;7.35;;;20.90;99.90;;;;;;5020484;28;20293;-50
2021/09/15 04:46:11;;;;;;;8.50;7.57;;;20.90;99.90;;;;;;5028901;28;20186;-50
2021/09/15 04:48:40;;;;;;;7.63;7.00;;;20.90;99.90;;;;;;5028002;28;20769;-50
2021/09/15 04:51:06;;;;;;;7.57;6.85;;;20.80;99.90;;;;;;5022074;28;20281;-50
2021/09/15 04:53:32;;;;;;;7.80;7.10;;;20.90;99.90;;;;;;5028711;28;20190;-50
2021/09/15 04:55:58;;;;;;;8.25;7.55;;;20.90;99.90;;;;;;5030501;28;20277;-50
2021/09/15 04:58:24;;;;;;;8.17;7.33;;;20.90;99.90;;;;;;5029884;28;20289;-50
2021/09/15 05:00:50;;;;;;;8.77;7.97;;;20.80;99.90;;;;;;5027072;28;20468;-49
2021/09/15 05:03:16;;;;;;;8.33;7.50;;;20.80;99.90;;;;;;5027597;28;20651;-50
2021/09/15 05:05:42;;;;;;;7.70;7.00;;;20.80;99.90;;;;;;5029783;28;20708;-50
2021/09/15 05:08:08;;;;;;;8.93;8.02;;;20.80;99.90;;;;;;5020416;28;20804;-50
2021/09/15 05:10:34;;;;;;;8.50;7.63;;;20.70;99.90;;;;;;5029440;28;20186;-50
2021/09/15 05:12:59;;;;;;;8.87;7.97;;;20.60;99.90;;;;;;5027179;28;20183;-49
2021/09/15 05:15:26;;;;;;;7.07;6.47;;;20.60;99.90;;;;;;5027997;28;20467;-50
2021/09/15 05:17:53;;;;;;;9.43;7.57;;;20.70;99.90;;;;;;5031110;28;20237;-50
2021/09/15 05:20:19;;;;;;;8.82;8.02;;;20.70;99.90;;;;;;5029346;28;20196;-50
2021/09/15 05:22:52;;;;;;;10.05;7.93;;;20.80;99.90;;;;;;5025241;28;20197;-50
2021/09/15 05:25:19;;;;;;;7.63;6.82;;;20.60;99.90;;;;;;5036496;28;20651;-49
2021/09/15 05:27:45;;;;;;;10.02;7.10;;;20.70;99.90;;;;;;5025438;28;20316;-50
2021/09/15 05:30:12;;;;;;;7.90;7.20;;;20.60;99.90;;;;;;5014629;28;20186;-50
2021/09/15 05:32:39;;;;;;;6.80;6.20;;;20.60;99.90;;;;;;5029577;28;20185;-49
2021/09/15 05:35:06;;;;;;;7.00;6.40;;;20.60;99.90;;;;;;5022074;28;20283;-50
2021/09/15 05:37:32;;;;;;;6.55;6.05;;;20.70;99.90;;;;;;5032168;28;20206;-50
2021/09/15 05:39:59;;;;;;;10.05;9.25;;;20.40;99.90;;;;;;5024524;28;20198;-49
2021/09/15 05:42:26;;;;;;;7.45;6.93;;;20.60;99.90;;;;;;5036879;28;20206;-50
2021/09/15 05:44:52;;;;;;;9.35;8.05;;;20.70;99.90;;;;;;5029086;28;20185;-50
2021/09/15 05:47:19;;;;;;;7.82;7.00;;;20.70;99.90;;;;;;5028583;28;20218;-50
2021/09/15 05:49:44;;;;;;;6.97;6.20;;;20.70;99.90;;;;;;5029079;28;20182;-50
2021/09/15 05:52:10;;;;;;;8.63;6.60;;;20.70;99.90;;;;;;5028006;28;20442;-50
2021/09/15 05:54:36;;;;;;;7.63;6.47;;;20.80;99.90;;;;;;5028589;28;20269;-50
2021/09/15 05:57:02;;;;;;;7.80;7.10;;;20.80;99.90;;;;;;5030196;28;20293;-50
2021/09/15 05:59:27;;;;;;;8.03;7.23;;;20.80;99.90;;;;;;5025925;28;20495;-50
2021/09/15 06:01:53;;;;;;;8.67;7.77;;;20.90;99.90;;;;;;5029686;28;20533;-50
2021/09/15 06:04:19;;;;;;;10.07;9.07;;;20.80;99.90;;;;;;5031008;28;20191;-50
2021/09/15 06:06:45;;;;;;;8.87;7.97;;;20.80;99.90;;;;;;5029408;28;20205;-50
2021/09/15 06:09:10;;;;;;;7.93;7.13;;;20.90;99.90;;;;;;5028518;28;20190;-50
2021/09/15 06:11:36;;;;;;;10.73;9.03;;;20.80;99.90;;;;;;5029893;28;20612;-50
2021/09/15 06:14:02;;;;;;;6.13;5.63;;;20.70;99.90;;;;;;5029928;28;20232;-50
2021/09/15 06:16:28;;;;;;;6.77;6.17;;;20.80;99.90;;;;;;5035955;28;20735;-49
2021/09/15 06:18:53;;;;;;;6.50;5.90;;;20.80;99.90;;;;;;5029865;28;20464;-49
2021/09/15 06:21:20;;;;;;;6.30;5.47;;;20.80;99.90;;;;;;5029414;28;20575;-50
2021/09/15 06:23:46;;;;;;;7.40;6.80;;;20.80;99.90;;;;;;5024910;28;20220;-51
2021/09/15 06:26:12;;;;;;;7.32;6.72;;;20.70;99.90;;;;;;5029654;28;20186;-52
2021/09/15 06:28:38;;;;;;;8.98;7.30;;;20.70;99.90;;;;;;5028360;28;20705;-50
2021/09/15 06:31:05;;;;;;;8.63;7.82;;;20.70;99.90;;;;;;5029657;28;20606;-49
2021/09/15 06:33:32;;;;;;;7.95;7.32;;;20.60;99.90;;;;;;5034335;28;20197;-49
2021/09/15 06:35:58;;;;;;;7.53;6.60;;;20.60;99.90;;;;;;5035193;28;20252;-49
2021/09/15 06:38:24;;;;;;;8.73;7.95;;;20.70;99.90;;;;;;5023275;28;20213;-48
2021/09/15 06:40:49;;;;;;;7.93;7.13;;;20.70;99.90;;;;;;5028670;28;20218;-50
2021/09/15 06:43:15;;;;;;;7.60;6.83;;;20.80;99.90;;;;;;5025939;28;20446;-51
2021/09/15 06:45:41;;;;;;;9.67;7.20;;;20.80;99.90;;;;;;5018569;28;20213;-49
2021/09/15 06:48:06;;;;;;;6.70;6.07;;;20.80;99.90;;;;;;5019578;28;20291;-49
2021/09/15 06:50:32;;;;;;;8.10;7.30;;;20.80;99.90;;;;;;5015014;28;20691;-48
2021/09/15 06:52:58;;;;;;;11.40;6.73;;;20.80;99.90;;;;;;5025644;28;20259;-49
2021/09/15 06:55:24;;;;;;;7.93;7.23;;;20.80;99.90;;;;;;5023119;28;20559;-49
2021/09/15 06:57:50;;;;;;;7.03;6.37;;;20.80;99.90;;;;;;5020949;28;20232;-49
2021/09/15 07:00:19;;;;;;;7.40;6.72;;;20.80;99.90;;;;;;5026068;28;20750;-51
2021/09/15 07:02:46;;;;;;;10.65;6.93;;;20.60;99.90;;;;;;5030733;28;20566;-53
2021/09/15 07:05:12;;;;;;;9.75;8.73;;;20.60;99.90;;;;;;5024158;28;20182;-52
2021/09/15 07:07:38;;;;;;;9.77;8.88;;;20.60;99.90;;;;;;5035001;28;20209;-54
2021/09/15 07:10:06;;;;;;;8.83;8.03;;;20.40;99.90;;;;;;5025702;28;20558;-53
2021/09/15 07:12:32;;;;;;;9.48;8.10;;;20.20;99.90;;;;;;5026220;28;20304;-53
2021/09/15 07:14:57;;;;;;;9.37;8.47;;;20.20;99.90;;;;;;5030796;28;20281;-53
2021/09/15 07:17:23;;;;;;;8.17;7.33;;;20.40;99.90;;;;;;5031578;28;20209;-52
2021/09/15 07:19:49;;;;;;;9.27;8.37;;;20.60;99.90;;;;;;5035026;28;20213;-51
2021/09/15 07:22:15;;;;;;;8.70;7.85;;;20.50;99.90;;;;;;5031664;28;20206;-52
2021/09/15 07:24:40;;;;;;;8.37;7.57;;;20.40;99.90;;;;;;5027677;28;20183;-53
2021/09/15 07:27:06;;;;;;;12.97;7.87;;;20.50;99.90;;;;;;5030442;28;20234;-54
2021/09/15 07:29:32;;;;;;;9.53;8.00;;;20.40;99.90;;;;;;5023413;28;20182;-51
2021/09/15 07:31:58;;;;;;;9.87;8.40;;;20.50;99.90;;;;;;5028130;28;20448;-52
2021/09/15 07:34:23;;;;;;;8.80;8.10;;;20.60;99.90;;;;;;5031663;28;20259;-52
2021/09/15 07:36:49;;;;;;;11.83;10.73;;;20.70;99.90;;;;;;5030966;28;20659;-52
2021/09/15 07:39:15;;;;;;;9.57;8.73;;;20.60;99.90;;;;;;5024739;28;20637;-52
2021/09/15 07:41:41;;;;;;;9.63;8.67;;;20.70;99.90;;;;;;5022472;28;20617;-53
2021/09/15 07:44:06;;;;;;;8.37;7.10;;;20.80;99.90;;;;;;5028125;28;20178;-53
2021/09/15 07:46:33;;;;;;;8.60;5.27;;;20.70;99.90;;;;;;5030762;28;20190;-53
2021/09/15 07:48:59;;;;;;;9.32;5.63;;;20.80;99.90;;;;;;5028080;28;20213;-53
2021/09/15 07:51:25;;;;;;;5.77;4.83;;;20.90;99.90;;;;;;5028477;28;20194;-52
2021/09/15 07:53:51;;;;;;;7.38;4.13;;;20.90;99.90;;;;;;5031765;28;20444;-53
2021/09/15 07:56:16;;;;;;;5.10;4.60;;;20.90;99.90;;;;;;5031288;28;20296;-52
2021/09/15 07:58:42;;;;;;;6.90;4.40;;;21.00;99.90;;;;;;5026360;28;20237;-51
2021/09/15 08:01:08;;;;;;;5.07;4.60;;;20.90;99.90;;;;;;5028064;28;20633;-52
2021/09/15 08:03:33;;;;;;;5.87;4.30;;;20.90;99.90;;;;;;5031574;28;20264;-52
2021/09/15 08:06:01;;;;;;;5.67;4.40;;;20.90;99.90;;;;;;5024292;28;20183;-52
2021/09/15 08:08:27;;;;;;;4.60;4.05;;;21.00;99.90;;;;;;5028195;28;20240;-52
2021/09/15 08:10:53;;;;;;;5.70;4.60;;;20.90;99.90;;;;;;5028593;28;20227;-52
2021/09/15 08:13:20;;;;;;;5.83;3.83;;;20.90;99.90;;;;;;5031519;28;20440;-52
2021/09/15 08:15:46;;;;;;;7.20;4.55;;;21.00;99.90;;;;;;5023851;28;20954;-48
2021/09/15 08:18:12;;;;;;;5.45;4.82;;;21.10;99.90;;;;;;5029429;28;20206;-48
2021/09/15 08:20:38;;;;;;;4.90;4.00;;;21.20;99.90;;;;;;5031617;28;20189;-49
2021/09/15 08:23:04;;;;;;;7.30;4.33;;;21.20;99.90;;;;;;5020091;28;20711;-49
2021/09/15 08:25:30;;;;;;;7.17;4.60;;;21.30;99.90;;;;;;5023591;28;20437;-49
2021/09/15 08:27:56;;;;;;;5.75;4.05;;;21.40;99.90;;;;;;5023721;28;20520;-49
2021/09/15 08:30:22;;;;;;;5.70;4.63;;;21.40;99.90;;;;;;5028526;28;20185;-49
2021/09/15 08:32:48;;;;;;;5.00;4.53;;;21.40;99.90;;;;;;5025087;28;20440;-49
2021/09/15 08:35:14;;;;;;;4.53;4.10;;;21.50;99.90;;;;;;5021176;28;20206;-49
2021/09/15 08:37:40;;;;;;;5.37;4.50;;;21.50;99.90;;;;;;5029200;28;20648;-49
2021/09/15 08:40:08;;;;;;;6.93;4.70;;;21.50;99.90;;;;;;5019959;28;20446;-49
2021/09/15 08:42:35;;;;;;;5.82;4.35;;;21.60;99.90;;;;;;5025092;28;20880;-49
2021/09/15 08:45:05;;;;;;;5.40;4.65;;;21.60;99.90;;;;;;5028207;28;20277;-49
2021/09/15 08:47:33;;;;;;;6.75;5.20;;;21.60;99.90;;;;;;5024661;28;20198;-49
2021/09/15 08:49:59;;;;;;;5.70;4.70;;;21.60;99.90;;;;;;5024089;28;20244;-49
2021/09/15 08:52:25;;;;;;;6.10;5.50;;;21.40;99.90;;;;;;5022829;28;20186;-50
2021/09/15 08:54:53;;;;;;;6.40;5.10;;;21.40;99.90;;;;;;5020742;28;20522;-49
2021/09/15 08:57:18;;;;;;;5.40;4.90;;;21.30;99.90;;;;;;5029892;28;20492;-49
2021/09/15 08:59:44;;;;;;;6.07;5.23;;;21.40;99.90;;;;;;5022150;28;20647;-50
2021/09/15 09:02:12;;;;;;;5.40;4.30;;;21.30;99.90;;;;;;5029442;28;20214;-51
2021/09/15 09:05:02;;;;;;;5.70;5.10;;;21.20;99.90;;;;;;5030817;28;20178;-53
2021/09/15 09:07:30;;;;;;;5.40;4.90;;;21.00;99.90;;;;;;5021715;28;20361;-52
2021/09/15 09:10:01;;;;;;;8.82;4.90;;;20.80;99.90;;;;;;5023271;28;20597;-48
2021/09/15 09:12:31;;;;;;;5.22;4.47;;;20.80;99.90;;;;;;5032120;28;20194;-48
2021/09/15 09:15:13;;;;;;;4.93;4.53;;;20.90;99.90;;;;;;5035375;28;20623;-49
2021/09/15 09:17:39;;;;;;;6.13;4.70;;;20.90;99.90;;;;;;5030052;28;20296;-48
2021/09/15 09:20:31;;;;;;;5.57;4.53;;;20.90;99.90;;;;;;5022728;28;20278;-50
2021/09/15 09:23:10;;;;;;;4.72;4.15;;;20.90;99.90;;;;;;5029994;28;20490;-51
2021/09/15 09:25:44;;;;;;;5.20;4.28;;;20.90;99.90;;;;;;5030151;28;20755;-51
2021/09/15 09:28:24;;;;;;;4.95;4.35;;;20.90;99.90;;;;;;5022767;28;20256;-50
2021/09/15 09:30:53;;;;;;;4.50;4.10;;;20.90;99.90;;;;;;5028568;28;20197;-51
2021/09/15 09:33:19;;;;;;;4.65;4.25;;;20.90;99.90;;;;;;5023544;28;20699;-50
2021/09/15 09:35:49;;;;;;;5.15;4.43;;;20.90;99.90;;;;;;5028714;28;20725;-47
2021/09/15 09:38:20;;;;;;;4.95;4.45;;;20.80;99.90;;;;;;5024832;28;20206;-48
2021/09/15 09:41:07;;;;;;;4.43;4.00;;;20.80;99.90;;;;;;5028048;28;20309;-47
2021/09/15 09:43:39;;;;;;;5.25;4.60;;;20.80;99.90;;;;;;5024735;28;20190;-47
2021/09/15 09:46:06;;;;;;;4.72;4.28;;;20.80;99.90;;;;;;5026103;28;20182;-47
2021/09/15 09:48:38;;;;;;;4.72;4.32;;;20.80;99.90;;;;;;5021710;28;20206;-49
2021/09/15 09:51:20;;;;;;;4.85;4.45;;;20.90;99.90;;;;;;5030835;28;20186;-50
2021/09/15 09:53:46;;;;;;;4.60;4.18;;;20.90;99.90;;;;;;5022802;28;20277;-49
2021/09/15 09:56:12;;;;;;;8.13;4.30;;;21.00;99.90;;;;;;5033616;28;20277;-49
2021/09/15 09:58:44;;;;;;;4.85;4.38;;;21.10;99.90;;;;;;5023374;28;20209;-49
2021/09/15 10:01:15;;;;;;;6.35;4.38;;;21.40;99.90;;;;;;5034238;28;20218;-49
2021/09/15 10:03:41;;;;;;;5.75;5.22;;;21.60;99.90;;;;;;5027899;28;20563;-50
2021/09/15 10:06:08;;;;;;;4.40;4.10;;;21.70;99.90;;;;;;5028447;28;20240;-50
2021/09/15 10:08:35;;;;;;;4.57;4.20;;;21.80;99.90;;;;;;5032708;28;20233;-50
2021/09/15 10:11:01;;;;;;;5.65;4.07;;;22.00;99.90;;;;;;5029232;28;20464;-50
2021/09/15 10:13:27;;;;;;;4.93;4.40;;;22.00;99.90;;;;;;5025983;28;20228;-49
2021/09/15 10:15:59;;;;;;;6.30;4.43;;;22.10;99.90;;;;;;5019125;28;20204;-49
2021/09/15 10:18:26;;;;;;;4.70;4.30;;;22.20;99.90;;;;;;5025546;28;20202;-49
2021/09/15 10:20:55;;;;;;;5.17;4.50;;;22.40;99.90;;;;;;5027749;28;20535;-49
2021/09/15 10:23:41;;;;;;;5.00;4.50;;;22.60;99.90;;;;;;5028015;28;20498;-50
2021/09/15 10:26:35;;;;;;;4.43;4.03;;;22.80;99.90;;;;;;5022476;28;20805;-50
2021/09/15 10:29:17;;;;;;;5.37;4.47;;;22.90;99.90;;;;;;5020188;28;20193;-49
2021/09/15 10:31:59;;;;;;;5.00;4.47;;;22.90;99.90;;;;;;5028585;28;20483;-49
2021/09/15 10:34:48;;;;;;;4.90;4.50;;;23.00;99.90;;;;;;5022312;28;20510;-49
2021/09/15 10:37:14;;;;;;;5.53;4.10;;;23.10;99.90;;;;;;5020487;28;20461;-50
2021/09/15 10:39:59;;;;;;;4.40;4.10;;;23.10;99.90;;;;;;5032198;28;20533;-49
2021/09/15 10:42:39;;;;;;;6.07;4.57;;;23.10;99.90;;;;;;5029194;28;20709;-50
2021/09/15 10:45:14;;;;;;;6.80;5.00;;;23.10;99.90;;;;;;5026198;28;20437;-50
2021/09/15 10:47:41;;;;;;;5.27;4.87;;;23.10;99.90;;;;;;5027950;28;20539;-50
2021/09/15 10:50:08;;;;;;;4.50;3.93;;;23.00;99.90;;;;;;5027239;28;20453;-49
2021/09/15 10:52:40;;;;;;;5.00;4.60;;;23.00;99.90;;;;;;5024237;28;20461;-50
2021/09/15 10:55:18;;;;;;;6.20;5.20;;;23.00;99.90;;;;;;5026221;28;20454;-49
2021/09/15 10:57:44;;;;;;;5.77;5.27;;;22.90;99.90;;;;;;5028761;28;20510;-50
2021/09/15 11:00:16;;;;;;;6.60;4.60;;;22.80;99.90;;;;;;5035552;28;20444;-49
2021/09/15 11:02:48;;;;;;;4.83;4.37;;;22.70;99.90;;;;;;5031539;28;20468;-49
2021/09/15 11:05:41;;;;;;;6.50;4.43;;;22.60;99.90;;;;;;5029742;28;20437;-50
2021/09/15 11:08:08;;;;;;;6.30;4.80;;;22.80;99.90;;;;;;5016595;28;20829;-50
2021/09/15 11:10:33;;;;;;;4.80;4.40;;;22.90;99.90;;;;;;5027351;28;20460;-51
2021/09/15 11:13:03;;;;;;;8.03;5.80;;;23.10;99.90;;;;;;5020819;28;20469;-50
2021/09/15 11:15:37;;;;;;;5.80;4.43;;;23.30;99.90;;;;;;5023197;28;20184;-50
2021/09/15 11:18:03;;;;;;;5.33;4.83;;;23.40;99.90;;;;;;5023113;28;20510;-51
2021/09/15 11:20:32;;;;;;;5.20;4.70;;;23.40;99.90;;;;;;5027036;28;20432;-51
2021/09/15 11:23:06;;;;;;;4.97;4.50;;;23.40;99.90;;;;;;5023016;28;20451;-51
2021/09/15 11:25:32;;;;;;;4.77;4.37;;;23.40;99.90;;;;;;5034339;28;20440;-51
2021/09/15 11:28:12;;;;;;;4.63;4.27;;;23.40;99.90;;;;;;5026964;28;20815;-51
2021/09/15 11:31:02;;;;;;;4.70;4.20;;;23.40;99.90;;;;;;5026766;28;20433;-51
2021/09/15 11:33:36;;;;;;;4.57;4.17;;;23.30;99.90;;;;;;5030477;28;20433;-51
2021/09/15 11:36:04;;;;;;;5.17;4.10;;;23.40;99.90;;;;;;5026084;28;21043;-51
2021/09/15 11:38:33;;;;;;;4.50;4.10;;;23.40;99.90;;;;;;5026607;28;20448;-51
2021/09/15 11:41:11;;;;;;;4.97;4.47;;;23.40;99.90;;;;;;5027318;28;21029;-50
2021/09/15 11:43:38;;;;;;;5.50;5.00;;;23.30;99.90;;;;;;5026148;28;20444;-50
2021/09/15 11:46:04;;;;;;;5.40;4.90;;;23.10;99.90;;;;;;5028356;28;20483;-51
2021/09/15 11:48:32;;;;;;;6.00;4.93;;;22.90;99.90;;;;;;5030544;28;20496;-51
2021/09/15 11:50:58;;;;;;;5.27;4.77;;;22.80;99.90;;;;;;5028085;28;20448;-51
2021/09/15 11:53:27;;;;;;;4.73;4.30;;;22.90;99.90;;;;;;5031275;28;20780;-50
2021/09/15 11:56:03;;;;;;;4.90;4.40;;;22.80;99.90;;;;;;5030978;28;20437;-50
2021/09/15 11:58:29;;;;;;;4.65;4.25;;;22.90;99.90;;;;;;5027013;28;20474;-51
2021/09/15 12:00:55;;;;;;;6.00;5.50;;;22.90;99.90;;;;;;5030838;28;20210;-50
2021/09/15 12:03:27;;;;;;;6.03;4.30;;;22.80;99.90;;;;;;5033871;28;20281;-50
2021/09/15 12:06:03;;;;;;;5.07;4.57;;;22.80;99.90;;;;;;5028075;28;20470;-51
2021/09/15 12:08:29;;;;;;;5.20;4.70;;;22.80;99.90;;;;;;5029256;28;20807;-51
2021/09/15 12:10:57;;;;;;;4.53;4.13;;;22.90;99.90;;;;;;5030211;28;20445;-51
2021/09/15 12:13:30;;;;;;;7.03;4.53;;;22.90;99.90;;;;;;5027911;28;20445;-51
2021/09/15 12:15:57;;;;;;;4.93;4.50;;;23.00;99.90;;;;;;5030086;28;20805;-50
2021/09/15 12:18:50;;;;;;;4.97;4.57;;;23.00;99.90;;;;;;5030244;28;20518;-50
2021/09/15 12:21:22;;;;;;;5.07;4.60;;;23.00;99.90;;;;;;5020822;28;20524;-49
2021/09/15 12:23:48;;;;;;;5.23;4.73;;;23.00;99.90;;;;;;5034375;28;20443;-49
2021/09/15 12:26:14;;;;;;;5.20;4.70;;;23.00;99.90;;;;;;5032676;28;20527;-50
2021/09/15 12:28:40;;;;;;;4.90;4.50;;;23.00;99.90;;;;;;5029337;28;20500;-49
2021/09/15 12:31:16;;;;;;;4.63;4.23;;;23.00;99.90;;;;;;5030052;28;20446;-49
2021/09/15 12:33:41;;;;;;;5.60;5.00;;;23.00;99.90;;;;;;5029660;28;20468;-51
2021/09/15 12:36:15;;;;;;;5.03;4.53;;;23.00;99.90;;;;;;5030789;28;20476;-51
2021/09/15 12:38:51;;;;;;;4.90;4.50;;;23.00;99.90;;;;;;5030396;28;20470;-51
2021/09/15 12:41:19;;;;;;;6.47;4.87;;;23.10;99.90;;;;;;5030073;28;20468;-50
2021/09/15 12:43:44;;;;;;;5.57;4.97;;;23.10;99.90;;;;;;5025873;28;20449;-51
2021/09/15 12:46:30;;;;;;;7.60;5.80;;;23.20;99.90;;;;;;5029810;28;20524;-51
2021/09/15 12:48:57;;;;;;;8.27;4.87;;;23.40;99.90;;;;;;5029413;28;20677;-51
2021/09/15 12:51:25;;;;;;;5.40;4.73;;;23.40;99.90;;;;;;5025450;28;20971;-50
2021/09/15 12:53:51;;;;;;;5.07;4.50;;;23.60;99.90;;;;;;5033260;28;20437;-50